sensor_id;sensor_type;location;lat;lon;timestamp;P1;durP1;ratioP1;P2;durP2;ratioP2
12665;SDS011;58531;59.050;17.416;2023-06-26T00:02:14;4.33;;;3.93;;
12665;SDS011;58531;59.050;17.416;2023-06-26T00:04:42;5.83;;;4.87;;
12665;SDS011;58531;59.050;17.416;2023-06-26T00:07:09;5.00;;;4.30;;
12665;SDS011;58531;59.050;17.416;2023-06-26T00:09:36;4.87;;;4.00;;
12665;SDS011;58531;59.050;17.416;2023-06-26T00:12:03;4.90;;;4.13;;
12665;SDS011;58531;59.050;17.416;2023-06-26T00:14:31;5.10;;;4.40;;
12665;SDS011;58531;59.050;17.416;2023-06-26T00:16:59;5.37;;;4.43;;
12665;SDS011;58531;59.050;17.416;2023-06-26T00:19:26;5.70;;;4.70;;
12665;SDS011;58531;59.050;17.416;2023-06-26T00:21:53;5.00;;;4.50;;
12665;SDS011;58531;59.050;17.416;2023-06-26T00:24:20;5.93;;;4.50;;
12665;SDS011;58531;59.050;17.416;2023-06-26T00:26:47;5.33;;;4.50;;
12665;SDS011;58531;59.050;17.416;2023-06-26T00:29:14;6.30;;;4.47;;
12665;SDS011;58531;59.050;17.416;2023-06-26T00:31:41;6.80;;;4.37;;
12665;SDS011;58531;59.050;17.416;2023-06-26T00:34:09;5.50;;;4.70;;
12665;SDS011;58531;59.050;17.416;2023-06-26T00:36:36;6.43;;;4.67;;
12665;SDS011;58531;59.050;17.416;2023-06-26T00:39:03;6.13;;;4.83;;
12665;SDS011;58531;59.050;17.416;2023-06-26T00:41:30;5.97;;;4.97;;
12665;SDS011;58531;59.050;17.416;2023-06-26T00:43:57;5.73;;;4.90;;
12665;SDS011;58531;59.050;17.416;2023-06-26T00:46:24;5.87;;;4.87;;
12665;SDS011;58531;59.050;17.416;2023-06-26T00:48:51;5.97;;;4.70;;
12665;SDS011;58531;59.050;17.416;2023-06-26T00:51:21;7.50;;;4.43;;
12665;SDS011;58531;59.050;17.416;2023-06-26T00:53:48;7.00;;;4.97;;
12665;SDS011;58531;59.050;17.416;2023-06-26T00:56:16;6.33;;;4.37;;
12665;SDS011;58531;59.050;17.416;2023-06-26T00:58:44;6.83;;;5.30;;
12665;SDS011;58531;59.050;17.416;2023-06-26T01:01:11;7.93;;;5.10;;
12665;SDS011;58531;59.050;17.416;2023-06-26T01:03:41;6.97;;;5.33;;
12665;SDS011;58531;59.050;17.416;2023-06-26T01:06:09;9.13;;;5.37;;
12665;SDS011;58531;59.050;17.416;2023-06-26T01:08:39;6.23;;;5.30;;
12665;SDS011;58531;59.050;17.416;2023-06-26T01:11:07;5.87;;;5.07;;
12665;SDS011;58531;59.050;17.416;2023-06-26T01:13:34;6.57;;;5.80;;
12665;SDS011;58531;59.050;17.416;2023-06-26T01:16:02;7.50;;;5.53;;
12665;SDS011;58531;59.050;17.416;2023-06-26T01:18:31;6.77;;;5.63;;
12665;SDS011;58531;59.050;17.416;2023-06-26T01:20:59;7.30;;;5.53;;
12665;SDS011;58531;59.050;17.416;2023-06-26T01:23:29;8.60;;;6.40;;
12665;SDS011;58531;59.050;17.416;2023-06-26T01:28:53;8.77;;;6.10;;
12665;SDS011;58531;59.050;17.416;2023-06-26T01:31:22;10.33;;;6.43;;
12665;SDS011;58531;59.050;17.416;2023-06-26T01:33:50;8.37;;;6.37;;
12665;SDS011;58531;59.050;17.416;2023-06-26T01:36:17;9.20;;;6.93;;
12665;SDS011;58531;59.050;17.416;2023-06-26T01:38:45;8.87;;;6.10;;
12665;SDS011;58531;59.050;17.416;2023-06-26T01:41:12;12.43;;;6.80;;
12665;SDS011;58531;59.050;17.416;2023-06-26T01:43:43;10.63;;;6.50;;
12665;SDS011;58531;59.050;17.416;2023-06-26T01:46:25;10.43;;;7.23;;
12665;SDS011;58531;59.050;17.416;2023-06-26T01:48:59;9.47;;;6.60;;
12665;SDS011;58531;59.050;17.416;2023-06-26T01:51:34;10.20;;;7.20;;
12665;SDS011;58531;59.050;17.416;2023-06-26T01:54:04;9.33;;;6.53;;
12665;SDS011;58531;59.050;17.416;2023-06-26T01:56:33;9.53;;;6.90;;
12665;SDS011;58531;59.050;17.416;2023-06-26T01:59:03;9.73;;;6.63;;
12665;SDS011;58531;59.050;17.416;2023-06-26T02:01:32;9.40;;;7.10;;
12665;SDS011;58531;59.050;17.416;2023-06-26T02:03:59;10.13;;;7.43;;
12665;SDS011;58531;59.050;17.416;2023-06-26T02:06:26;11.70;;;8.07;;
12665;SDS011;58531;59.050;17.416;2023-06-26T02:08:52;11.00;;;7.73;;
12665;SDS011;58531;59.050;17.416;2023-06-26T02:11:21;9.60;;;7.20;;
12665;SDS011;58531;59.050;17.416;2023-06-26T02:13:48;11.17;;;7.10;;
12665;SDS011;58531;59.050;17.416;2023-06-26T02:16:16;9.87;;;7.43;;
12665;SDS011;58531;59.050;17.416;2023-06-26T02:18:44;10.13;;;7.67;;
12665;SDS011;58531;59.050;17.416;2023-06-26T02:21:11;9.07;;;7.20;;
12665;SDS011;58531;59.050;17.416;2023-06-26T02:23:38;10.27;;;7.30;;
12665;SDS011;58531;59.050;17.416;2023-06-26T02:26:04;10.67;;;7.03;;
12665;SDS011;58531;59.050;17.416;2023-06-26T02:28:31;11.13;;;7.33;;
12665;SDS011;58531;59.050;17.416;2023-06-26T02:30:59;10.07;;;7.10;;
12665;SDS011;58531;59.050;17.416;2023-06-26T02:33:27;8.97;;;6.90;;
12665;SDS011;58531;59.050;17.416;2023-06-26T02:35:54;7.37;;;6.20;;
12665;SDS011;58531;59.050;17.416;2023-06-26T02:38:21;9.10;;;6.20;;
12665;SDS011;58531;59.050;17.416;2023-06-26T02:40:48;7.90;;;6.10;;
12665;SDS011;58531;59.050;17.416;2023-06-26T02:43:15;10.20;;;6.73;;
12665;SDS011;58531;59.050;17.416;2023-06-26T02:45:42;7.87;;;6.00;;
12665;SDS011;58531;59.050;17.416;2023-06-26T02:48:09;6.57;;;5.63;;
12665;SDS011;58531;59.050;17.416;2023-06-26T02:50:37;5.73;;;5.00;;
12665;SDS011;58531;59.050;17.416;2023-06-26T02:53:04;6.13;;;5.50;;
12665;SDS011;58531;59.050;17.416;2023-06-26T02:55:31;5.70;;;4.87;;
12665;SDS011;58531;59.050;17.416;2023-06-26T02:57:59;4.43;;;4.03;;
12665;SDS011;58531;59.050;17.416;2023-06-26T03:00:26;3.93;;;3.20;;
12665;SDS011;58531;59.050;17.416;2023-06-26T03:02:55;3.47;;;2.60;;
12665;SDS011;58531;59.050;17.416;2023-06-26T03:05:22;3.50;;;2.20;;
12665;SDS011;58531;59.050;17.416;2023-06-26T03:07:50;2.70;;;2.50;;
12665;SDS011;58531;59.050;17.416;2023-06-26T03:10:17;2.87;;;2.67;;
12665;SDS011;58531;59.050;17.416;2023-06-26T03:12:44;2.77;;;2.47;;
12665;SDS011;58531;59.050;17.416;2023-06-26T03:15:11;2.60;;;2.40;;
12665;SDS011;58531;59.050;17.416;2023-06-26T03:17:38;2.37;;;2.17;;
12665;SDS011;58531;59.050;17.416;2023-06-26T03:20:06;3.10;;;2.40;;
12665;SDS011;58531;59.050;17.416;2023-06-26T03:22:34;2.40;;;2.20;;
12665;SDS011;58531;59.050;17.416;2023-06-26T03:25:03;2.50;;;2.30;;
12665;SDS011;58531;59.050;17.416;2023-06-26T03:27:31;2.47;;;2.27;;
12665;SDS011;58531;59.050;17.416;2023-06-26T03:29:57;2.33;;;2.13;;
12665;SDS011;58531;59.050;17.416;2023-06-26T03:32:24;2.40;;;2.20;;
12665;SDS011;58531;59.050;17.416;2023-06-26T03:34:51;2.40;;;2.20;;
12665;SDS011;58531;59.050;17.416;2023-06-26T03:37:19;3.10;;;2.13;;
12665;SDS011;58531;59.050;17.416;2023-06-26T03:39:46;2.60;;;2.40;;
12665;SDS011;58531;59.050;17.416;2023-06-26T03:42:14;2.57;;;2.20;;
12665;SDS011;58531;59.050;17.416;2023-06-26T03:44:41;2.70;;;2.50;;
12665;SDS011;58531;59.050;17.416;2023-06-26T03:47:08;2.27;;;2.17;;
12665;SDS011;58531;59.050;17.416;2023-06-26T03:49:35;3.03;;;2.73;;
12665;SDS011;58531;59.050;17.416;2023-06-26T03:52:01;3.20;;;2.90;;
12665;SDS011;58531;59.050;17.416;2023-06-26T03:54:28;2.93;;;2.63;;
12665;SDS011;58531;59.050;17.416;2023-06-26T03:56:55;2.70;;;2.50;;
12665;SDS011;58531;59.050;17.416;2023-06-26T03:59:23;2.73;;;2.53;;
12665;SDS011;58531;59.050;17.416;2023-06-26T04:01:50;2.87;;;2.67;;
12665;SDS011;58531;59.050;17.416;2023-06-26T04:04:18;2.60;;;2.40;;
12665;SDS011;58531;59.050;17.416;2023-06-26T04:06:45;2.50;;;2.30;;
12665;SDS011;58531;59.050;17.416;2023-06-26T04:09:12;2.50;;;2.30;;
12665;SDS011;58531;59.050;17.416;2023-06-26T04:11:39;2.27;;;2.17;;
12665;SDS011;58531;59.050;17.416;2023-06-26T04:14:05;2.77;;;2.53;;
12665;SDS011;58531;59.050;17.416;2023-06-26T04:16:34;2.63;;;2.33;;
12665;SDS011;58531;59.050;17.416;2023-06-26T04:19:00;2.60;;;2.40;;
12665;SDS011;58531;59.050;17.416;2023-06-26T04:21:29;3.43;;;2.23;;
12665;SDS011;58531;59.050;17.416;2023-06-26T04:23:56;2.43;;;2.23;;
12665;SDS011;58531;59.050;17.416;2023-06-26T04:26:23;2.60;;;2.40;;
12665;SDS011;58531;59.050;17.416;2023-06-26T04:28:50;2.47;;;2.27;;
12665;SDS011;58531;59.050;17.416;2023-06-26T04:31:17;2.77;;;2.20;;
12665;SDS011;58531;59.050;17.416;2023-06-26T04:33:45;2.63;;;2.43;;
12665;SDS011;58531;59.050;17.416;2023-06-26T04:36:16;2.27;;;2.13;;
12665;SDS011;58531;59.050;17.416;2023-06-26T04:38:43;2.53;;;2.33;;
12665;SDS011;58531;59.050;17.416;2023-06-26T04:41:10;3.00;;;2.80;;
12665;SDS011;58531;59.050;17.416;2023-06-26T04:43:37;2.30;;;2.20;;
12665;SDS011;58531;59.050;17.416;2023-06-26T04:46:05;2.13;;;2.03;;
12665;SDS011;58531;59.050;17.416;2023-06-26T04:48:32;2.23;;;2.13;;
12665;SDS011;58531;59.050;17.416;2023-06-26T04:51:00;2.60;;;2.40;;
12665;SDS011;58531;59.050;17.416;2023-06-26T04:53:27;2.50;;;2.30;;
12665;SDS011;58531;59.050;17.416;2023-06-26T04:55:54;2.53;;;2.30;;
12665;SDS011;58531;59.050;17.416;2023-06-26T04:58:21;2.20;;;2.10;;
12665;SDS011;58531;59.050;17.416;2023-06-26T05:00:48;2.60;;;2.40;;
12665;SDS011;58531;59.050;17.416;2023-06-26T05:03:16;2.08;;;1.98;;
12665;SDS011;58531;59.050;17.416;2023-06-26T05:05:43;2.50;;;2.30;;
12665;SDS011;58531;59.050;17.416;2023-06-26T05:08:15;2.17;;;2.08;;
12665;SDS011;58531;59.050;17.416;2023-06-26T05:10:43;2.45;;;2.33;;
12665;SDS011;58531;59.050;17.416;2023-06-26T05:13:10;2.70;;;2.50;;
12665;SDS011;58531;59.050;17.416;2023-06-26T05:15:40;2.20;;;2.10;;
12665;SDS011;58531;59.050;17.416;2023-06-26T05:18:07;2.60;;;2.40;;
12665;SDS011;58531;59.050;17.416;2023-06-26T05:20:34;2.30;;;2.10;;
12665;SDS011;58531;59.050;17.416;2023-06-26T05:23:02;2.05;;;1.95;;
12665;SDS011;58531;59.050;17.416;2023-06-26T05:25:31;2.78;;;2.58;;
12665;SDS011;58531;59.050;17.416;2023-06-26T05:27:59;2.20;;;2.00;;
12665;SDS011;58531;59.050;17.416;2023-06-26T05:30:27;2.03;;;1.92;;
12665;SDS011;58531;59.050;17.416;2023-06-26T05:32:56;2.30;;;2.20;;
12665;SDS011;58531;59.050;17.416;2023-06-26T05:35:27;2.42;;;2.28;;
12665;SDS011;58531;59.050;17.416;2023-06-26T05:37:56;2.22;;;2.05;;
12665;SDS011;58531;59.050;17.416;2023-06-26T05:40:23;2.30;;;2.20;;
12665;SDS011;58531;59.050;17.416;2023-06-26T05:42:53;2.30;;;2.13;;
12665;SDS011;58531;59.050;17.416;2023-06-26T05:45:20;2.47;;;2.28;;
12665;SDS011;58531;59.050;17.416;2023-06-26T05:47:47;2.40;;;2.20;;
12665;SDS011;58531;59.050;17.416;2023-06-26T05:50:17;1.88;;;1.77;;
12665;SDS011;58531;59.050;17.416;2023-06-26T05:52:45;1.90;;;1.80;;
12665;SDS011;58531;59.050;17.416;2023-06-26T05:55:13;2.03;;;1.92;;
12665;SDS011;58531;59.050;17.416;2023-06-26T05:57:40;2.65;;;2.08;;
12665;SDS011;58531;59.050;17.416;2023-06-26T06:00:10;2.88;;;2.30;;
12665;SDS011;58531;59.050;17.416;2023-06-26T06:02:38;2.33;;;2.22;;
12665;SDS011;58531;59.050;17.416;2023-06-26T06:05:06;2.35;;;2.20;;
12665;SDS011;58531;59.050;17.416;2023-06-26T06:07:34;2.22;;;2.03;;
12665;SDS011;58531;59.050;17.416;2023-06-26T06:10:02;2.45;;;2.25;;
12665;SDS011;58531;59.050;17.416;2023-06-26T06:12:30;2.90;;;2.58;;
12665;SDS011;58531;59.050;17.416;2023-06-26T06:14:57;2.60;;;2.40;;
12665;SDS011;58531;59.050;17.416;2023-06-26T06:17:25;2.58;;;2.38;;
12665;SDS011;58531;59.050;17.416;2023-06-26T06:19:52;2.30;;;2.20;;
12665;SDS011;58531;59.050;17.416;2023-06-26T06:22:19;2.35;;;2.20;;
12665;SDS011;58531;59.050;17.416;2023-06-26T06:24:46;2.33;;;2.22;;
12665;SDS011;58531;59.050;17.416;2023-06-26T06:27:14;2.33;;;2.20;;
12665;SDS011;58531;59.050;17.416;2023-06-26T06:29:41;2.47;;;2.28;;
12665;SDS011;58531;59.050;17.416;2023-06-26T06:32:08;2.60;;;2.40;;
12665;SDS011;58531;59.050;17.416;2023-06-26T06:34:37;2.50;;;2.40;;
12665;SDS011;58531;59.050;17.416;2023-06-26T06:37:04;2.60;;;2.50;;
12665;SDS011;58531;59.050;17.416;2023-06-26T06:39:30;2.97;;;2.63;;
12665;SDS011;58531;59.050;17.416;2023-06-26T06:41:57;2.42;;;2.33;;
12665;SDS011;58531;59.050;17.416;2023-06-26T06:44:24;2.35;;;2.25;;
12665;SDS011;58531;59.050;17.416;2023-06-26T06:46:51;2.38;;;2.28;;
12665;SDS011;58531;59.050;17.416;2023-06-26T06:49:18;2.38;;;2.17;;
12665;SDS011;58531;59.050;17.416;2023-06-26T06:51:46;2.20;;;2.10;;
12665;SDS011;58531;59.050;17.416;2023-06-26T06:54:14;2.53;;;2.42;;
12665;SDS011;58531;59.050;17.416;2023-06-26T06:56:42;2.70;;;2.50;;
12665;SDS011;58531;59.050;17.416;2023-06-26T06:59:09;2.50;;;2.40;;
12665;SDS011;58531;59.050;17.416;2023-06-26T07:01:35;2.78;;;2.58;;
12665;SDS011;58531;59.050;17.416;2023-06-26T07:04:03;2.90;;;2.70;;
12665;SDS011;58531;59.050;17.416;2023-06-26T07:06:30;2.63;;;2.42;;
12665;SDS011;58531;59.050;17.416;2023-06-26T07:08:58;2.97;;;2.78;;
12665;SDS011;58531;59.050;17.416;2023-06-26T07:11:25;2.22;;;2.13;;
12665;SDS011;58531;59.050;17.416;2023-06-26T07:13:52;2.83;;;2.65;;
12665;SDS011;58531;59.050;17.416;2023-06-26T07:16:19;2.65;;;2.45;;
12665;SDS011;58531;59.050;17.416;2023-06-26T07:18:46;2.70;;;2.50;;
12665;SDS011;58531;59.050;17.416;2023-06-26T07:21:14;2.63;;;2.42;;
12665;SDS011;58531;59.050;17.416;2023-06-26T07:23:41;2.38;;;2.28;;
12665;SDS011;58531;59.050;17.416;2023-06-26T07:26:09;2.10;;;2.00;;
12665;SDS011;58531;59.050;17.416;2023-06-26T07:28:36;2.42;;;2.33;;
12665;SDS011;58531;59.050;17.416;2023-06-26T07:31:03;2.67;;;2.47;;
12665;SDS011;58531;59.050;17.416;2023-06-26T07:33:30;2.28;;;2.17;;
12665;SDS011;58531;59.050;17.416;2023-06-26T07:35:56;2.50;;;2.35;;
12665;SDS011;58531;59.050;17.416;2023-06-26T07:38:23;2.78;;;2.58;;
12665;SDS011;58531;59.050;17.416;2023-06-26T07:40:50;2.95;;;2.03;;
12665;SDS011;58531;59.050;17.416;2023-06-26T07:43:19;2.50;;;2.30;;
12665;SDS011;58531;59.050;17.416;2023-06-26T07:45:45;2.60;;;2.40;;
12665;SDS011;58531;59.050;17.416;2023-06-26T07:48:12;2.70;;;2.50;;
12665;SDS011;58531;59.050;17.416;2023-06-26T07:50:39;2.53;;;2.35;;
12665;SDS011;58531;59.050;17.416;2023-06-26T07:53:06;2.65;;;2.45;;
12665;SDS011;58531;59.050;17.416;2023-06-26T07:55:33;2.30;;;2.13;;
12665;SDS011;58531;59.050;17.416;2023-06-26T07:58:00;2.50;;;2.30;;
12665;SDS011;58531;59.050;17.416;2023-06-26T08:00:29;2.20;;;2.10;;
12665;SDS011;58531;59.050;17.416;2023-06-26T08:02:55;2.47;;;2.28;;
12665;SDS011;58531;59.050;17.416;2023-06-26T08:05:22;2.33;;;2.22;;
12665;SDS011;58531;59.050;17.416;2023-06-26T08:07:49;2.13;;;2.03;;
12665;SDS011;58531;59.050;17.416;2023-06-26T08:10:16;2.05;;;1.95;;
12665;SDS011;58531;59.050;17.416;2023-06-26T08:12:43;2.22;;;2.13;;
12665;SDS011;58531;59.050;17.416;2023-06-26T08:15:10;1.95;;;1.85;;
12665;SDS011;58531;59.050;17.416;2023-06-26T08:17:39;2.30;;;2.10;;
12665;SDS011;58531;59.050;17.416;2023-06-26T08:20:06;1.90;;;1.80;;
12665;SDS011;58531;59.050;17.416;2023-06-26T08:22:34;3.08;;;2.25;;
12665;SDS011;58531;59.050;17.416;2023-06-26T08:25:01;2.20;;;2.00;;
12665;SDS011;58531;59.050;17.416;2023-06-26T08:27:30;2.30;;;2.10;;
12665;SDS011;58531;59.050;17.416;2023-06-26T08:29:57;2.00;;;1.90;;
12665;SDS011;58531;59.050;17.416;2023-06-26T08:32:25;2.67;;;2.23;;
12665;SDS011;58531;59.050;17.416;2023-06-26T08:34:53;2.03;;;1.93;;
12665;SDS011;58531;59.050;17.416;2023-06-26T08:37:20;2.50;;;2.30;;
12665;SDS011;58531;59.050;17.416;2023-06-26T08:39:47;2.40;;;1.77;;
12665;SDS011;58531;59.050;17.416;2023-06-26T08:42:14;2.17;;;1.93;;
12665;SDS011;58531;59.050;17.416;2023-06-26T08:44:41;1.97;;;1.87;;
12665;SDS011;58531;59.050;17.416;2023-06-26T08:47:09;1.80;;;1.70;;
12665;SDS011;58531;59.050;17.416;2023-06-26T08:49:44;1.70;;;1.60;;
12665;SDS011;58531;59.050;17.416;2023-06-26T08:52:17;2.20;;;2.00;;
12665;SDS011;58531;59.050;17.416;2023-06-26T08:54:48;1.80;;;1.70;;
12665;SDS011;58531;59.050;17.416;2023-06-26T08:57:21;2.20;;;2.00;;
12665;SDS011;58531;59.050;17.416;2023-06-26T08:59:49;1.87;;;1.77;;
12665;SDS011;58531;59.050;17.416;2023-06-26T09:02:17;2.13;;;1.93;;
12665;SDS011;58531;59.050;17.416;2023-06-26T09:04:46;2.47;;;2.27;;
12665;SDS011;58531;59.050;17.416;2023-06-26T09:07:14;2.80;;;1.90;;
12665;SDS011;58531;59.050;17.416;2023-06-26T09:09:42;2.00;;;1.90;;
12665;SDS011;58531;59.050;17.416;2023-06-26T09:12:09;1.90;;;1.80;;
12665;SDS011;58531;59.050;17.416;2023-06-26T09:14:36;2.00;;;1.80;;
12665;SDS011;58531;59.050;17.416;2023-06-26T09:17:04;2.00;;;1.80;;
12665;SDS011;58531;59.050;17.416;2023-06-26T09:19:31;2.00;;;1.90;;
12665;SDS011;58531;59.050;17.416;2023-06-26T09:21:58;1.90;;;1.80;;
12665;SDS011;58531;59.050;17.416;2023-06-26T09:24:25;2.20;;;2.00;;
12665;SDS011;58531;59.050;17.416;2023-06-26T09:26:53;2.00;;;1.77;;
12665;SDS011;58531;59.050;17.416;2023-06-26T09:29:20;1.60;;;1.50;;
12665;SDS011;58531;59.050;17.416;2023-06-26T09:31:47;2.37;;;1.90;;
12665;SDS011;58531;59.050;17.416;2023-06-26T09:34:14;1.70;;;1.53;;
12665;SDS011;58531;59.050;17.416;2023-06-26T09:36:44;1.73;;;1.63;;
12665;SDS011;58531;59.050;17.416;2023-06-26T09:39:12;1.90;;;1.80;;
12665;SDS011;58531;59.050;17.416;2023-06-26T09:41:40;1.73;;;1.63;;
12665;SDS011;58531;59.050;17.416;2023-06-26T09:44:10;1.97;;;1.53;;
12665;SDS011;58531;59.050;17.416;2023-06-26T09:46:37;1.90;;;1.70;;
12665;SDS011;58531;59.050;17.416;2023-06-26T09:49:05;2.07;;;1.80;;
12665;SDS011;58531;59.050;17.416;2023-06-26T09:51:33;1.80;;;1.70;;
12665;SDS011;58531;59.050;17.416;2023-06-26T09:54:01;2.47;;;1.80;;
12665;SDS011;58531;59.050;17.416;2023-06-26T09:56:29;1.93;;;1.73;;
12665;SDS011;58531;59.050;17.416;2023-06-26T09:58:57;2.13;;;1.83;;
12665;SDS011;58531;59.050;17.416;2023-06-26T10:01:27;1.60;;;1.50;;
12665;SDS011;58531;59.050;17.416;2023-06-26T10:03:55;3.03;;;2.10;;
12665;SDS011;58531;59.050;17.416;2023-06-26T10:06:24;2.47;;;1.70;;
12665;SDS011;58531;59.050;17.416;2023-06-26T10:08:53;2.20;;;2.00;;
12665;SDS011;58531;59.050;17.416;2023-06-26T10:11:22;1.97;;;1.57;;
12665;SDS011;58531;59.050;17.416;2023-06-26T10:13:51;2.13;;;1.70;;
12665;SDS011;58531;59.050;17.416;2023-06-26T10:16:22;2.13;;;1.50;;
12665;SDS011;58531;59.050;17.416;2023-06-26T10:18:56;1.90;;;1.70;;
12665;SDS011;58531;59.050;17.416;2023-06-26T10:21:29;1.73;;;1.63;;
12665;SDS011;58531;59.050;17.416;2023-06-26T10:23:58;2.03;;;1.83;;
12665;SDS011;58531;59.050;17.416;2023-06-26T10:26:25;4.60;;;4.30;;
12665;SDS011;58531;59.050;17.416;2023-06-26T10:28:54;4.80;;;4.40;;
12665;SDS011;58531;59.050;17.416;2023-06-26T10:31:24;3.90;;;3.63;;
12665;SDS011;58531;59.050;17.416;2023-06-26T10:33:56;1.70;;;1.60;;
12665;SDS011;58531;59.050;17.416;2023-06-26T10:36:27;1.80;;;1.67;;
12665;SDS011;58531;59.050;17.416;2023-06-26T10:38:55;2.47;;;1.90;;
12665;SDS011;58531;59.050;17.416;2023-06-26T10:41:23;1.67;;;1.50;;
12665;SDS011;58531;59.050;17.416;2023-06-26T10:43:51;1.57;;;1.47;;
12665;SDS011;58531;59.050;17.416;2023-06-26T10:46:32;1.93;;;1.33;;
12665;SDS011;58531;59.050;17.416;2023-06-26T10:49:01;4.47;;;3.05;;
12665;SDS011;58531;59.050;17.416;2023-06-26T10:51:37;2.53;;;2.33;;
12665;SDS011;58531;59.050;17.416;2023-06-26T10:54:04;2.50;;;2.20;;
12665;SDS011;58531;59.050;17.416;2023-06-26T10:56:43;2.70;;;1.70;;
12665;SDS011;58531;59.050;17.416;2023-06-26T10:59:13;3.13;;;2.20;;
12665;SDS011;58531;59.050;17.416;2023-06-26T11:01:41;1.83;;;1.70;;
12665;SDS011;58531;59.050;17.416;2023-06-26T11:04:10;7.07;;;5.30;;
12665;SDS011;58531;59.050;17.416;2023-06-26T11:06:38;1.87;;;1.70;;
12665;SDS011;58531;59.050;17.416;2023-06-26T11:09:09;2.10;;;1.83;;
12665;SDS011;58531;59.050;17.416;2023-06-26T11:11:56;3.87;;;3.13;;
12665;SDS011;58531;59.050;17.416;2023-06-26T11:14:27;1.93;;;1.70;;
12665;SDS011;58531;59.050;17.416;2023-06-26T11:16:55;5.20;;;4.57;;
12665;SDS011;58531;59.050;17.416;2023-06-26T11:19:23;1.87;;;1.23;;
12665;SDS011;58531;59.050;17.416;2023-06-26T11:21:59;14.17;;;11.47;;
12665;SDS011;58531;59.050;17.416;2023-06-26T11:24:28;3.70;;;3.13;;
12665;SDS011;58531;59.050;17.416;2023-06-26T11:26:59;3.47;;;2.73;;
12665;SDS011;58531;59.050;17.416;2023-06-26T11:29:27;1.73;;;1.60;;
12665;SDS011;58531;59.050;17.416;2023-06-26T11:31:58;1.73;;;1.63;;
12665;SDS011;58531;59.050;17.416;2023-06-26T11:34:25;2.97;;;2.03;;
12665;SDS011;58531;59.050;17.416;2023-06-26T11:36:56;1.43;;;1.33;;
12665;SDS011;58531;59.050;17.416;2023-06-26T11:39:28;1.90;;;1.50;;
12665;SDS011;58531;59.050;17.416;2023-06-26T11:41:54;1.40;;;1.30;;
12665;SDS011;58531;59.050;17.416;2023-06-26T11:44:22;2.47;;;2.27;;
12665;SDS011;58531;59.050;17.416;2023-06-26T11:46:51;2.87;;;2.43;;
12665;SDS011;58531;59.050;17.416;2023-06-26T11:49:20;2.90;;;2.20;;
12665;SDS011;58531;59.050;17.416;2023-06-26T11:51:48;2.10;;;1.97;;
12665;SDS011;58531;59.050;17.416;2023-06-26T11:54:22;1.40;;;1.30;;
12665;SDS011;58531;59.050;17.416;2023-06-26T11:56:56;2.00;;;1.80;;
12665;SDS011;58531;59.050;17.416;2023-06-26T11:59:24;1.67;;;1.50;;
12665;SDS011;58531;59.050;17.416;2023-06-26T12:02:00;1.40;;;1.30;;
12665;SDS011;58531;59.050;17.416;2023-06-26T12:04:30;3.37;;;3.00;;
12665;SDS011;58531;59.050;17.416;2023-06-26T12:06:59;1.83;;;1.40;;
12665;SDS011;58531;59.050;17.416;2023-06-26T12:09:30;1.67;;;1.57;;
12665;SDS011;58531;59.050;17.416;2023-06-26T12:11:59;1.80;;;1.20;;
12665;SDS011;58531;59.050;17.416;2023-06-26T12:14:27;2.73;;;1.50;;
12665;SDS011;58531;59.050;17.416;2023-06-26T12:16:54;1.87;;;1.70;;
12665;SDS011;58531;59.050;17.416;2023-06-26T12:19:24;1.70;;;1.57;;
12665;SDS011;58531;59.050;17.416;2023-06-26T12:21:51;5.77;;;5.20;;
12665;SDS011;58531;59.050;17.416;2023-06-26T12:24:19;1.40;;;1.30;;
12665;SDS011;58531;59.050;17.416;2023-06-26T12:26:49;2.50;;;1.70;;
12665;SDS011;58531;59.050;17.416;2023-06-26T12:29:18;2.90;;;2.47;;
12665;SDS011;58531;59.050;17.416;2023-06-26T12:31:49;1.50;;;1.40;;
12665;SDS011;58531;59.050;17.416;2023-06-26T12:34:18;2.17;;;1.90;;
12665;SDS011;58531;59.050;17.416;2023-06-26T12:36:46;1.47;;;1.37;;
12665;SDS011;58531;59.050;17.416;2023-06-26T12:39:15;2.57;;;1.53;;
12665;SDS011;58531;59.050;17.416;2023-06-26T12:41:47;1.60;;;1.50;;
12665;SDS011;58531;59.050;17.416;2023-06-26T12:44:18;4.17;;;3.00;;
12665;SDS011;58531;59.050;17.416;2023-06-26T12:46:46;1.57;;;1.43;;
12665;SDS011;58531;59.050;17.416;2023-06-26T12:49:14;1.67;;;1.57;;
12665;SDS011;58531;59.050;17.416;2023-06-26T12:51:41;2.70;;;2.50;;
12665;SDS011;58531;59.050;17.416;2023-06-26T12:54:09;4.33;;;3.93;;
12665;SDS011;58531;59.050;17.416;2023-06-26T12:56:36;6.33;;;5.33;;
12665;SDS011;58531;59.050;17.416;2023-06-26T12:59:04;2.00;;;1.80;;
12665;SDS011;58531;59.050;17.416;2023-06-26T13:01:31;3.20;;;2.87;;
12665;SDS011;58531;59.050;17.416;2023-06-26T13:03:59;4.03;;;3.63;;
12665;SDS011;58531;59.050;17.416;2023-06-26T13:06:26;3.67;;;3.37;;
12665;SDS011;58531;59.050;17.416;2023-06-26T13:08:53;1.80;;;1.70;;
12665;SDS011;58531;59.050;17.416;2023-06-26T13:11:19;2.33;;;2.13;;
12665;SDS011;58531;59.050;17.416;2023-06-26T13:13:47;1.53;;;1.43;;
12665;SDS011;58531;59.050;17.416;2023-06-26T13:16:16;3.60;;;3.27;;
12665;SDS011;58531;59.050;17.416;2023-06-26T13:18:43;2.60;;;1.73;;
12665;SDS011;58531;59.050;17.416;2023-06-26T13:21:10;2.17;;;1.87;;
12665;SDS011;58531;59.050;17.416;2023-06-26T13:23:37;6.57;;;5.97;;
12665;SDS011;58531;59.050;17.416;2023-06-26T13:26:04;1.60;;;1.50;;
12665;SDS011;58531;59.050;17.416;2023-06-26T13:28:31;1.40;;;1.30;;
12665;SDS011;58531;59.050;17.416;2023-06-26T13:30:58;9.53;;;8.57;;
12665;SDS011;58531;59.050;17.416;2023-06-26T13:33:27;3.57;;;3.23;;
12665;SDS011;58531;59.050;17.416;2023-06-26T13:35:53;2.30;;;2.10;;
12665;SDS011;58531;59.050;17.416;2023-06-26T13:38:20;5.33;;;4.83;;
12665;SDS011;58531;59.050;17.416;2023-06-26T13:40:49;4.73;;;4.33;;
12665;SDS011;58531;59.050;17.416;2023-06-26T13:43:17;1.90;;;1.80;;
12665;SDS011;58531;59.050;17.416;2023-06-26T13:45:44;5.90;;;5.33;;
12665;SDS011;58531;59.050;17.416;2023-06-26T13:48:11;3.73;;;3.37;;
12665;SDS011;58531;59.050;17.416;2023-06-26T13:50:39;1.47;;;1.37;;
12665;SDS011;58531;59.050;17.416;2023-06-26T13:53:06;1.40;;;1.30;;
12665;SDS011;58531;59.050;17.416;2023-06-26T13:55:33;2.57;;;2.37;;
12665;SDS011;58531;59.050;17.416;2023-06-26T13:58:00;1.93;;;1.60;;
12665;SDS011;58531;59.050;17.416;2023-06-26T14:00:30;1.30;;;1.20;;
12665;SDS011;58531;59.050;17.416;2023-06-26T14:02:58;1.73;;;1.43;;
12665;SDS011;58531;59.050;17.416;2023-06-26T14:05:25;2.27;;;1.33;;
12665;SDS011;58531;59.050;17.416;2023-06-26T14:07:53;2.43;;;1.83;;
12665;SDS011;58531;59.050;17.416;2023-06-26T14:10:20;1.90;;;1.70;;
12665;SDS011;58531;59.050;17.416;2023-06-26T14:12:47;1.50;;;1.40;;
12665;SDS011;58531;59.050;17.416;2023-06-26T14:15:14;1.80;;;1.70;;
12665;SDS011;58531;59.050;17.416;2023-06-26T14:17:41;2.67;;;1.40;;
12665;SDS011;58531;59.050;17.416;2023-06-26T14:20:09;1.60;;;1.50;;
12665;SDS011;58531;59.050;17.416;2023-06-26T14:22:37;1.67;;;1.57;;
12665;SDS011;58531;59.050;17.416;2023-06-26T14:25:06;1.90;;;1.80;;
12665;SDS011;58531;59.050;17.416;2023-06-26T14:27:34;2.03;;;1.80;;
12665;SDS011;58531;59.050;17.416;2023-06-26T14:30:01;1.67;;;1.57;;
12665;SDS011;58531;59.050;17.416;2023-06-26T14:32:28;1.63;;;1.40;;
12665;SDS011;58531;59.050;17.416;2023-06-26T14:34:55;1.90;;;1.80;;
12665;SDS011;58531;59.050;17.416;2023-06-26T14:37:22;1.50;;;1.40;;
12665;SDS011;58531;59.050;17.416;2023-06-26T14:39:49;3.80;;;1.67;;
12665;SDS011;58531;59.050;17.416;2023-06-26T14:42:17;1.77;;;1.40;;